Time;durP1;ratioP1;P1;durP2;ratioP2;P2;SDS_P1;SDS_P2;PMS_P1;PMS_P2;Temp;Humidity;BMP_temperature;BMP_pressure;BME280_temperature;BME280_humidity;BME280_pressure;Samples;Min_cycle;Max_cycle;Signal;HPM_P1;HPM_P2
2024/04/05 00:00:46;;;;;;;7.93;2.50;;;10.40;99.90;;;;;;5000195;28;20538;-44
2024/04/05 00:03:12;;;;;;;4.10;2.35;;;10.30;99.90;;;;;;5002594;28;20041;-44
2024/04/05 00:05:38;;;;;;;3.35;1.98;;;10.30;99.90;;;;;;5012099;28;20602;-45
2024/04/05 00:08:04;;;;;;;4.82;2.10;;;10.20;99.90;;;;;;5002117;28;20050;-41
2024/04/05 00:10:30;;;;;;;10.85;2.38;;;10.10;99.90;;;;;;5007684;28;20118;-45
2024/04/05 00:12:57;;;;;;;8.45;3.00;;;10.10;99.90;;;;;;5009303;28;20456;-45
2024/04/05 00:15:23;;;;;;;4.80;2.28;;;10.10;99.90;;;;;;5005716;28;20058;-43
2024/04/05 00:17:49;;;;;;;7.28;2.90;;;10.10;99.90;;;;;;5015140;28;20094;-40
2024/04/05 00:20:15;;;;;;;7.07;2.63;;;10.00;99.90;;;;;;4999362;28;20030;-49
2024/04/05 00:22:41;;;;;;;9.00;2.65;;;10.10;99.90;;;;;;5009224;28;20105;-44
2024/04/05 00:25:07;;;;;;;8.73;2.60;;;10.00;99.90;;;;;;5007558;28;20315;-40
2024/04/05 00:27:33;;;;;;;4.22;2.03;;;10.10;99.90;;;;;;5004926;28;20043;-43
2024/04/05 00:30:03;;;;;;;7.95;2.50;;;10.00;99.90;;;;;;5009462;28;20060;-50
2024/04/05 00:32:30;;;;;;;6.97;2.45;;;10.00;99.90;;;;;;5011343;28;20050;-45
2024/04/05 00:34:56;;;;;;;8.65;2.83;;;9.90;99.90;;;;;;5008584;28;20054;-43
2024/04/05 00:37:24;;;;;;;7.63;3.38;;;10.00;99.90;;;;;;5000020;28;20519;-45
2024/04/05 00:39:50;;;;;;;7.63;2.80;;;10.00;99.90;;;;;;5009461;28;20219;-49
2024/04/05 00:42:16;;;;;;;8.75;2.65;;;10.00;99.90;;;;;;4990504;28;20042;-45
2024/04/05 00:44:42;;;;;;;6.28;3.08;;;10.00;99.90;;;;;;5028111;28;20036;-48
2024/04/05 00:47:08;;;;;;;5.80;2.60;;;10.00;99.90;;;;;;5006819;28;20046;-47
2024/04/05 00:49:34;;;;;;;4.75;2.47;;;10.00;99.90;;;;;;5010190;28;20066;-43
2024/04/05 00:52:03;;;;;;;6.72;2.60;;;10.10;99.90;;;;;;5010635;28;20050;-49
2024/04/05 00:54:29;;;;;;;7.97;2.78;;;10.10;99.90;;;;;;5027201;28;20129;-42
2024/04/05 00:56:56;;;;;;;6.90;2.67;;;10.10;99.90;;;;;;5009142;28;20039;-44
2024/04/05 00:59:24;;;;;;;6.53;3.00;;;10.10;99.90;;;;;;5009023;28;20046;-43
2024/04/05 01:01:50;;;;;;;5.82;3.10;;;10.20;99.90;;;;;;5007353;28;20672;-44
2024/04/05 01:04:16;;;;;;;7.82;3.13;;;10.20;99.90;;;;;;5006729;28;20280;-44
2024/04/05 01:06:42;;;;;;;9.10;3.45;;;10.20;99.90;;;;;;5023796;28;20143;-42
2024/04/05 01:09:08;;;;;;;6.82;3.05;;;10.30;99.90;;;;;;5007129;28;20050;-44
2024/04/05 01:11:34;;;;;;;6.13;2.70;;;10.30;99.90;;;;;;5029547;28;20042;-46
2024/04/05 01:14:00;;;;;;;9.07;2.95;;;10.30;99.90;;;;;;5012198;28;20086;-47
2024/04/05 01:16:26;;;;;;;6.28;3.00;;;10.30;99.90;;;;;;5005044;28;20451;-45
2024/04/05 01:18:57;;;;;;;7.35;2.90;;;10.40;99.90;;;;;;5012432;28;20590;-42
2024/04/05 01:21:23;;;;;;;6.77;3.03;;;10.30;99.90;;;;;;5022302;28;20054;-44
2024/04/05 01:23:50;;;;;;;5.68;3.10;;;10.40;99.90;;;;;;5010548;28;20429;-43
2024/04/05 01:26:16;;;;;;;6.07;2.90;;;10.40;99.90;;;;;;5009643;28;20050;-47
2024/04/05 01:28:42;;;;;;;5.63;2.50;;;10.40;99.90;;;;;;5013872;28;20085;-48
2024/04/05 01:31:08;;;;;;;6.13;2.40;;;10.40;99.90;;;;;;5000923;28;20039;-48
2024/04/05 01:33:34;;;;;;;6.55;2.83;;;10.40;99.90;;;;;;5010327;28;20034;-48
2024/04/05 01:36:00;;;;;;;6.10;2.53;;;10.40;99.90;;;;;;5007811;28;20116;-45
2024/04/05 01:38:25;;;;;;;5.78;2.75;;;10.40;99.90;;;;;;5003290;28;20133;-44
2024/04/05 01:40:51;;;;;;;5.90;2.58;;;10.50;99.90;;;;;;5007689;28;20153;-45
2024/04/05 01:43:17;;;;;;;6.25;2.50;;;10.40;99.90;;;;;;5025763;28;20044;-45
2024/04/05 01:45:44;;;;;;;6.88;2.70;;;10.50;99.90;;;;;;5005452;28;20112;-42
2024/04/05 01:48:10;;;;;;;4.93;2.72;;;10.50;99.90;;;;;;5010805;28;20050;-48
2024/04/05 01:50:37;;;;;;;5.03;2.33;;;10.50;99.90;;;;;;5004338;28;20066;-45
2024/04/05 01:53:03;;;;;;;6.20;2.60;;;10.50;99.90;;;;;;5027272;28;20060;-44
2024/04/05 01:55:31;;;;;;;7.05;2.67;;;10.50;99.90;;;;;;5001373;28;20046;-44
2024/04/05 01:57:57;;;;;;;7.15;2.30;;;10.50;99.90;;;;;;5009762;28;20042;-44
2024/04/05 02:00:23;;;;;;;6.13;2.58;;;10.50;99.90;;;;;;5007465;28;20050;-43
2024/04/05 02:02:49;;;;;;;5.03;2.50;;;10.50;99.90;;;;;;4993374;28;20058;-47
2024/04/05 02:05:15;;;;;;;6.03;2.50;;;10.50;99.90;;;;;;5000787;28;20486;-43
2024/04/05 02:07:41;;;;;;;6.60;2.47;;;10.50;99.90;;;;;;5016858;28;20049;-43
2024/04/05 02:10:07;;;;;;;4.53;2.42;;;10.50;99.90;;;;;;4996799;28;20042;-46
2024/04/05 02:12:32;;;;;;;7.80;2.30;;;10.50;99.90;;;;;;5010072;28;20042;-46
2024/04/05 02:14:58;;;;;;;7.93;2.30;;;10.60;99.90;;;;;;4999421;28;20326;-47
2024/04/05 02:17:24;;;;;;;5.25;2.30;;;10.50;99.90;;;;;;5006573;28;20117;-43
2024/04/05 02:19:50;;;;;;;7.00;2.35;;;10.60;99.90;;;;;;5007916;28;20031;-45
2024/04/05 02:22:17;;;;;;;7.30;2.60;;;10.60;99.90;;;;;;5004139;28;20050;-42
2024/04/05 02:24:43;;;;;;;5.30;2.58;;;10.50;99.90;;;;;;5004292;28;20477;-44
2024/04/05 02:27:09;;;;;;;5.50;2.50;;;10.50;99.90;;;;;;5005057;28;20050;-46
2024/04/05 02:29:36;;;;;;;5.20;2.20;;;10.50;99.90;;;;;;5010386;28;20073;-44
2024/04/05 02:32:02;;;;;;;5.00;2.17;;;10.50;99.90;;;;;;5009696;28;20077;-46
2024/04/05 02:34:27;;;;;;;4.40;2.22;;;10.50;99.90;;;;;;5008245;28;20041;-43
2024/04/05 02:36:53;;;;;;;6.38;2.60;;;10.50;99.90;;;;;;5016040;28;20041;-44
2024/04/05 02:39:20;;;;;;;4.22;2.20;;;10.50;99.90;;;;;;5006265;28;20471;-46
2024/04/05 02:41:46;;;;;;;8.18;2.15;;;10.60;99.90;;;;;;5004563;28;20207;-45
2024/04/05 02:44:13;;;;;;;5.75;2.42;;;10.60;99.90;;;;;;5026343;28;20070;-44
2024/04/05 02:46:42;;;;;;;5.93;2.20;;;10.60;99.90;;;;;;5013934;28;20054;-45
2024/04/05 02:49:09;;;;;;;5.05;2.10;;;10.60;99.90;;;;;;5006611;28;20065;-43
2024/04/05 02:51:35;;;;;;;8.18;2.65;;;10.60;99.90;;;;;;5015368;28;20050;-45
2024/04/05 02:54:02;;;;;;;6.18;2.05;;;10.70;99.90;;;;;;5003447;28;20729;-45
2024/04/05 02:56:28;;;;;;;5.18;2.00;;;10.70;99.90;;;;;;5015189;28;20041;-47
2024/04/05 02:58:56;;;;;;;4.68;2.55;;;10.70;99.90;;;;;;5012072;28;20042;-44
2024/04/05 03:01:23;;;;;;;7.82;2.20;;;10.70;99.90;;;;;;5006782;28;20461;-46
2024/04/05 03:03:50;;;;;;;4.13;2.22;;;10.70;99.90;;;;;;5012050;28;20048;-46
2024/04/05 03:06:16;;;;;;;6.03;2.42;;;10.70;99.90;;;;;;5009585;28;20049;-45
2024/04/05 03:08:42;;;;;;;6.97;2.13;;;10.70;99.90;;;;;;5019673;28;20040;-44
2024/04/05 03:11:08;;;;;;;5.85;2.20;;;10.80;99.90;;;;;;5008420;28;20042;-46
2024/04/05 03:13:35;;;;;;;3.83;1.90;;;10.80;99.90;;;;;;5015229;28;20056;-47
2024/04/05 03:16:01;;;;;;;6.15;2.08;;;10.80;99.90;;;;;;5001438;28;20127;-47
2024/04/05 03:18:27;;;;;;;5.97;2.47;;;10.80;99.90;;;;;;5012565;28;20034;-42
2024/04/05 03:20:54;;;;;;;5.20;2.45;;;10.80;99.90;;;;;;5008245;28;20057;-46
2024/04/05 03:23:20;;;;;;;5.88;2.20;;;10.80;99.90;;;;;;5008263;28;20108;-44
2024/04/05 03:25:46;;;;;;;6.18;2.50;;;10.90;99.90;;;;;;5014853;28;20044;-45
2024/04/05 03:28:12;;;;;;;7.15;2.60;;;10.90;99.90;;;;;;5002141;28;20235;-45
2024/04/05 03:30:38;;;;;;;4.40;2.15;;;10.90;99.90;;;;;;5007492;28;20456;-48
2024/04/05 03:33:04;;;;;;;6.00;2.10;;;10.90;99.90;;;;;;5004131;28;20046;-45
2024/04/05 03:35:30;;;;;;;6.68;2.10;;;10.90;99.90;;;;;;5013696;28;20433;-45
2024/04/05 03:37:56;;;;;;;4.93;2.17;;;11.00;99.90;;;;;;5010572;28;20046;-45
2024/04/05 03:40:22;;;;;;;6.25;2.50;;;10.90;99.90;;;;;;5004643;28;20039;-46
2024/04/05 03:42:48;;;;;;;4.78;2.15;;;11.00;99.90;;;;;;4998842;28;20040;-46
2024/04/05 03:45:15;;;;;;;6.80;2.40;;;11.00;99.90;;;;;;5019169;28;20549;-48
2024/04/05 03:47:42;;;;;;;8.15;2.28;;;11.00;99.90;;;;;;5016164;28;20046;-44
2024/04/05 03:50:08;;;;;;;5.40;2.17;;;11.10;99.90;;;;;;5008293;28;20114;-45
2024/04/05 03:52:35;;;;;;;4.90;2.50;;;11.10;99.90;;;;;;5018282;28;20050;-43
2024/04/05 03:55:01;;;;;;;7.57;2.38;;;11.10;99.90;;;;;;5012280;28;20046;-50
2024/04/05 03:57:27;;;;;;;5.05;2.40;;;11.10;99.90;;;;;;5009641;28;20057;-43
2024/04/05 03:59:54;;;;;;;5.35;2.30;;;11.10;99.90;;;;;;5015951;28;20504;-42
2024/04/05 04:02:20;;;;;;;6.03;2.58;;;11.10;99.90;;;;;;5004967;28;20038;-44
2024/04/05 04:04:47;;;;;;;6.25;2.50;;;11.10;99.90;;;;;;5019232;28;20036;-45
2024/04/05 04:07:13;;;;;;;6.50;2.38;;;11.10;99.90;;;;;;5002270;28;20046;-41
2024/04/05 04:09:39;;;;;;;7.72;2.80;;;11.10;99.90;;;;;;5018701;28;20045;-43
2024/04/05 04:12:05;;;;;;;6.25;2.42;;;11.10;99.90;;;;;;5011269;28;20476;-44
2024/04/05 04:14:32;;;;;;;8.05;2.20;;;11.10;99.90;;;;;;5015708;28;20518;-42
2024/04/05 04:16:57;;;;;;;4.68;2.28;;;11.10;99.90;;;;;;5010169;28;20045;-44
2024/04/05 04:19:23;;;;;;;6.50;2.42;;;11.20;99.90;;;;;;5009547;28;20042;-43
2024/04/05 04:21:50;;;;;;;6.47;2.28;;;11.20;99.90;;;;;;5006614;28;20071;-43
2024/04/05 04:24:16;;;;;;;9.43;3.00;;;11.20;99.90;;;;;;5008386;28;20042;-42
2024/04/05 04:26:42;;;;;;;9.68;2.90;;;11.20;99.90;;;;;;5014107;28;20056;-44
2024/04/05 04:29:08;;;;;;;6.10;3.30;;;11.20;99.90;;;;;;5002954;28;20047;-42
2024/04/05 04:31:34;;;;;;;7.75;2.67;;;11.30;99.90;;;;;;5084217;27;20520;-43
2024/04/05 04:34:00;;;;;;;6.90;3.38;;;11.30;99.90;;;;;;5009324;28;20045;-45
2024/04/05 04:36:25;;;;;;;6.38;3.22;;;11.30;99.90;;;;;;5005133;28;20046;-43
2024/04/05 04:38:51;;;;;;;9.50;3.15;;;11.30;99.90;;;;;;5015645;28;20044;-43
2024/04/05 04:41:18;;;;;;;8.82;2.85;;;11.30;99.90;;;;;;4999478;28;20042;-43
2024/04/05 04:43:45;;;;;;;8.18;2.83;;;11.20;99.90;;;;;;5032663;28;20048;-44
2024/04/05 04:46:11;;;;;;;26.77;13.00;;;11.30;99.90;;;;;;4999186;28;20073;-46
2024/04/05 04:48:38;;;;;;;8.88;4.15;;;11.30;99.90;;;;;;5007475;28;20634;-41
2024/04/05 04:51:05;;;;;;;8.82;3.13;;;11.30;99.90;;;;;;4990344;28;20054;-43
2024/04/05 04:53:31;;;;;;;10.32;3.90;;;11.30;99.90;;;;;;5004851;28;20075;-45
2024/04/05 04:55:57;;;;;;;8.13;3.40;;;11.30;99.90;;;;;;5087548;28;20053;-45
2024/04/05 04:58:26;;;;;;;12.30;3.60;;;11.30;99.90;;;;;;5004723;28;20050;-44
2024/04/05 05:00:52;;;;;;;7.40;3.42;;;11.30;99.90;;;;;;5014942;28;20049;-44
2024/04/05 05:03:18;;;;;;;9.85;3.63;;;11.30;99.90;;;;;;5009429;28;20480;-42
2024/04/05 05:05:44;;;;;;;8.75;3.45;;;11.40;99.90;;;;;;5007467;28;20044;-42
2024/04/05 05:08:11;;;;;;;8.63;3.65;;;11.30;99.90;;;;;;5022999;28;20057;-44
2024/04/05 05:10:42;;;;;;;7.05;2.38;;;11.40;99.90;;;;;;5008783;28;20042;-43
2024/04/05 05:13:09;;;;;;;7.22;3.15;;;11.50;99.90;;;;;;4998430;28;20969;-44
2024/04/05 05:15:36;;;;;;;6.80;2.92;;;11.50;99.90;;;;;;5012309;28;20039;-44
2024/04/05 05:18:02;;;;;;;10.45;3.50;;;11.60;99.90;;;;;;5018758;28;20523;-48
2024/04/05 05:20:28;;;;;;;10.23;3.50;;;11.60;99.90;;;;;;5006766;28;20042;-44
2024/04/05 05:22:55;;;;;;;8.50;3.40;;;11.70;99.90;;;;;;5009235;28;20046;-44
2024/04/05 05:25:21;;;;;;;9.30;4.10;;;11.70;99.90;;;;;;5008530;28;20055;-44
2024/04/05 05:27:47;;;;;;;8.77;3.35;;;11.80;99.90;;;;;;5000800;28;20534;-43
2024/04/05 05:30:14;;;;;;;7.90;4.13;;;11.80;99.90;;;;;;5014981;28;20042;-43
2024/04/05 05:32:41;;;;;;;10.95;4.78;;;11.90;99.90;;;;;;5028713;28;20050;-47
2024/04/05 05:35:08;;;;;;;12.02;5.20;;;11.80;99.90;;;;;;5005205;28;20058;-45
2024/04/05 05:37:34;;;;;;;10.95;5.30;;;11.90;99.90;;;;;;5018257;28;20050;-43
2024/04/05 05:40:00;;;;;;;10.07;4.32;;;11.90;99.90;;;;;;5003359;28;20042;-46
2024/04/05 05:42:28;;;;;;;7.88;3.88;;;12.00;99.90;;;;;;4998015;28;20349;-43
2024/04/05 05:44:56;;;;;;;9.10;4.15;;;12.00;99.90;;;;;;5001622;28;20053;-44
2024/04/05 05:47:22;;;;;;;13.90;6.32;;;12.00;99.90;;;;;;5002675;28;20235;-43
2024/04/05 05:49:52;;;;;;;10.32;5.45;;;12.00;99.90;;;;;;5008338;28;20146;-44
2024/04/05 05:52:19;;;;;;;8.10;3.35;;;12.10;99.90;;;;;;5004444;28;20112;-41
2024/04/05 05:54:45;;;;;;;9.73;4.30;;;12.10;99.90;;;;;;5006523;28;20117;-46
2024/04/05 05:57:11;;;;;;;10.80;5.00;;;12.00;99.90;;;;;;5000241;28;20042;-41
2024/04/05 05:59:37;;;;;;;10.32;4.20;;;12.10;99.90;;;;;;5015866;28;20437;-46
2024/04/05 06:02:04;;;;;;;8.75;3.88;;;12.10;99.90;;;;;;5002554;28;20106;-49
2024/04/05 06:04:30;;;;;;;6.72;3.42;;;12.20;99.90;;;;;;5017699;28;20525;-42
2024/04/05 06:06:57;;;;;;;9.68;3.95;;;12.20;99.90;;;;;;4985348;28;20061;-42
2024/04/05 06:09:23;;;;;;;8.65;3.10;;;12.20;99.90;;;;;;5008261;28;20434;-46
2024/04/05 06:11:54;;;;;;;9.57;4.15;;;12.30;99.90;;;;;;5011833;28;20492;-43
2024/04/05 06:14:20;;;;;;;7.43;2.80;;;12.40;99.90;;;;;;5038897;28;20126;-45
2024/04/05 06:16:47;;;;;;;8.18;3.05;;;12.40;99.90;;;;;;5021495;28;20056;-47
2024/04/05 06:19:13;;;;;;;7.35;2.80;;;12.50;99.90;;;;;;5005557;28;20058;-41
2024/04/05 06:21:39;;;;;;;10.73;3.45;;;12.50;99.90;;;;;;5022123;28;20305;-44
2024/04/05 06:24:05;;;;;;;5.80;3.35;;;12.60;99.90;;;;;;5006228;28;20050;-44
2024/04/05 06:26:35;;;;;;;9.00;3.10;;;12.70;99.90;;;;;;5005820;28;20030;-45
2024/04/05 06:29:04;;;;;;;6.68;3.17;;;12.80;99.90;;;;;;5006470;28;20537;-44
2024/04/05 06:31:30;;;;;;;5.63;3.13;;;12.90;99.90;;;;;;5010576;28;20065;-44
2024/04/05 06:33:56;;;;;;;5.40;2.80;;;13.00;99.90;;;;;;5008506;28;20054;-46
2024/04/05 06:36:22;;;;;;;6.28;3.13;;;13.20;99.90;;;;;;5001463;28;20473;-45
2024/04/05 06:38:48;;;;;;;6.30;2.88;;;13.20;99.90;;;;;;5085596;28;20550;-46
2024/04/05 06:41:14;;;;;;;7.75;2.83;;;13.30;99.90;;;;;;5004108;28;20038;-45
2024/04/05 06:43:40;;;;;;;8.95;3.00;;;13.40;99.90;;;;;;5031146;28;20038;-44
2024/04/05 06:46:07;;;;;;;10.07;4.40;;;13.60;99.90;;;;;;5008817;28;20052;-44
2024/04/05 06:48:35;;;;;;;10.40;3.53;;;13.70;99.90;;;;;;5018091;28;20091;-43
2024/04/05 06:51:11;;;;;;;6.18;3.08;;;13.80;99.90;;;;;;5001534;28;20045;-45
2024/04/05 06:53:38;;;;;;;7.25;3.00;;;13.90;99.90;;;;;;5005786;28;20046;-52
2024/04/05 06:56:06;;;;;;;8.20;3.20;;;14.00;99.90;;;;;;5008870;28;20076;-42
2024/04/05 06:58:33;;;;;;;7.40;3.10;;;14.10;99.90;;;;;;5011423;28;20257;-45
2024/04/05 07:01:03;;;;;;;6.65;3.17;;;14.20;99.90;;;;;;5010981;28;20049;-43
2024/04/05 07:03:29;;;;;;;7.82;2.75;;;14.10;99.90;;;;;;5018143;28;20393;-49
2024/04/05 07:06:03;;;;;;;10.85;3.20;;;14.20;99.90;;;;;;5021323;28;20092;-48
2024/04/05 07:08:30;;;;;;;9.02;2.80;;;14.30;99.90;;;;;;5002441;28;20511;-44
2024/04/05 07:10:57;;;;;;;7.30;3.00;;;14.30;99.90;;;;;;5007816;28;20042;-41
2024/04/05 07:13:24;;;;;;;7.93;3.30;;;14.30;99.90;;;;;;5016088;28;20049;-48
2024/04/05 07:15:50;;;;;;;9.77;3.67;;;14.40;99.90;;;;;;5013183;28;20059;-44
2024/04/05 07:18:19;;;;;;;8.07;3.17;;;14.40;99.90;;;;;;5013796;28;20050;-43
2024/04/05 07:20:46;;;;;;;6.90;2.90;;;14.30;99.90;;;;;;5008224;28;20058;-47
2024/04/05 07:23:12;;;;;;;5.28;2.63;;;14.20;99.90;;;;;;5013206;28;20164;-47
2024/04/05 07:25:38;;;;;;;5.85;2.83;;;14.10;99.90;;;;;;5023584;28;20479;-47
2024/04/05 07:28:04;;;;;;;5.63;2.70;;;14.10;99.90;;;;;;5025904;28;20123;-45
2024/04/05 07:30:32;;;;;;;6.80;2.97;;;14.00;99.90;;;;;;5019646;28;20483;-45
2024/04/05 07:33:00;;;;;;;10.00;2.95;;;14.00;99.90;;;;;;5005365;28;20179;-45
2024/04/05 07:35:27;;;;;;;7.95;3.35;;;13.90;99.90;;;;;;5016136;28;20054;-46
2024/04/05 07:37:53;;;;;;;6.93;3.53;;;13.90;99.90;;;;;;5008884;28;20042;-46
2024/04/05 07:40:20;;;;;;;7.60;2.75;;;14.00;99.90;;;;;;5007640;28;20099;-42
2024/04/05 07:42:50;;;;;;;6.80;3.03;;;14.00;99.90;;;;;;5010500;28;20097;-44
2024/04/05 07:45:17;;;;;;;9.60;3.15;;;14.10;99.90;;;;;;5029015;28;20110;-50
2024/04/05 07:47:46;;;;;;;11.35;2.80;;;14.20;99.90;;;;;;5009504;28;20126;-45
2024/04/05 07:50:11;;;;;;;6.85;2.60;;;14.20;99.90;;;;;;5005336;28;20061;-45
2024/04/05 07:52:37;;;;;;;5.40;2.70;;;14.20;99.90;;;;;;5015204;28;20038;-44
2024/04/05 07:55:04;;;;;;;6.40;2.70;;;14.30;99.90;;;;;;5001680;28;20050;-41
2024/04/05 07:57:30;;;;;;;6.63;2.92;;;14.40;99.90;;;;;;5012736;28;20046;-46
2024/04/05 07:59:55;;;;;;;7.40;2.63;;;14.70;99.90;;;;;;5012668;28;20080;-47
2024/04/05 08:02:27;;;;;;;10.38;3.40;;;14.90;99.90;;;;;;5012210;28;20049;-45
2024/04/05 08:04:58;;;;;;;5.05;2.20;;;15.00;99.90;;;;;;5068186;28;20038;-46
2024/04/05 08:07:25;;;;;;;5.05;2.25;;;15.10;99.90;;;;;;5008879;28;20042;-45
2024/04/05 08:09:54;;;;;;;6.93;2.88;;;15.30;99.90;;;;;;5024484;28;20047;-49
2024/04/05 08:12:21;;;;;;;7.65;3.22;;;15.60;99.90;;;;;;5011068;28;20045;-44
2024/04/05 08:14:50;;;;;;;5.85;3.25;;;15.80;99.90;;;;;;5042206;28;20076;-45
2024/04/05 08:17:16;;;;;;;5.25;2.30;;;16.00;99.90;;;;;;5013460;28;20054;-44
2024/04/05 08:19:43;;;;;;;7.47;2.38;;;16.20;99.90;;;;;;5014472;28;20246;-44
2024/04/05 08:22:08;;;;;;;8.40;2.78;;;16.30;99.90;;;;;;5011801;28;20041;-45
2024/04/05 08:24:34;;;;;;;6.88;2.60;;;16.40;99.90;;;;;;5015407;28;20100;-46
2024/04/05 08:27:01;;;;;;;13.52;3.22;;;16.50;99.90;;;;;;5008875;28;20049;-42
2024/04/05 08:29:27;;;;;;;9.75;2.95;;;16.50;99.90;;;;;;5014445;28;20423;-44
2024/04/05 08:31:53;;;;;;;6.40;2.47;;;16.60;99.90;;;;;;5012071;28;20053;-43
2024/04/05 08:34:20;;;;;;;10.00;2.40;;;16.70;99.90;;;;;;5005715;28;20105;-42
2024/04/05 08:36:49;;;;;;;7.07;2.88;;;16.90;99.90;;;;;;5011087;28;20051;-48
2024/04/05 08:39:19;;;;;;;5.05;2.50;;;17.10;99.90;;;;;;5009864;28;20039;-44
2024/04/05 08:41:47;;;;;;;7.25;2.55;;;17.30;99.90;;;;;;5005912;28;20059;-46
2024/04/05 08:44:15;;;;;;;7.78;3.33;;;17.50;99.90;;;;;;5026598;28;20130;-44
2024/04/05 08:46:42;;;;;;;7.30;2.97;;;17.60;99.90;;;;;;5013486;28;20297;-46
2024/04/05 08:49:11;;;;;;;7.30;2.53;;;17.60;99.90;;;;;;5002797;28;20096;-47
2024/04/05 08:51:40;;;;;;;6.25;2.72;;;17.60;99.90;;;;;;5021720;28;20056;-42
2024/04/05 08:54:07;;;;;;;6.57;2.50;;;17.60;99.90;;;;;;5004596;28;20038;-47
2024/04/05 08:56:35;;;;;;;6.85;2.40;;;17.70;99.90;;;;;;5014755;28;20034;-46
2024/04/05 08:59:03;;;;;;;9.35;3.42;;;17.60;99.90;;;;;;5008278;28;20059;-46
2024/04/05 09:01:29;;;;;;;14.85;2.70;;;17.60;99.90;;;;;;5009825;28;20061;-50
2024/04/05 09:03:55;;;;;;;4.95;2.20;;;17.50;99.90;;;;;;5011784;28;20053;-48
2024/04/05 09:06:21;;;;;;;10.15;3.30;;;17.30;99.90;;;;;;5004340;28;20051;-50
2024/04/05 09:08:52;;;;;;;14.32;3.00;;;17.30;99.90;;;;;;5012814;28;20044;-43
2024/04/05 09:11:25;;;;;;;4.68;2.50;;;17.30;99.90;;;;;;5002942;28;20118;-45
2024/04/05 09:13:55;;;;;;;4.95;2.42;;;17.40;99.90;;;;;;5010590;28;20036;-45
2024/04/05 09:16:25;;;;;;;5.10;2.42;;;17.50;99.90;;;;;;5021476;28;20050;-47
2024/04/05 09:18:52;;;;;;;7.50;3.28;;;17.40;99.90;;;;;;5008762;28;20044;-47
2024/04/05 09:21:18;;;;;;;6.95;3.10;;;17.50;99.90;;;;;;4998712;28;20042;-44
2024/04/05 09:23:49;;;;;;;5.28;2.95;;;17.70;99.90;;;;;;5015809;28;20059;-49
2024/04/05 09:26:24;;;;;;;6.95;2.60;;;18.00;99.90;;;;;;5000846;28;20043;-47
2024/04/05 09:29:05;;;;;;;5.97;2.60;;;18.10;99.90;;;;;;5007977;28;20608;-46
2024/04/05 09:31:31;;;;;;;5.03;2.55;;;18.20;99.90;;;;;;5014460;28;20050;-50
2024/04/05 09:34:08;;;;;;;4.88;2.50;;;18.30;99.90;;;;;;4985584;28;20057;-48
2024/04/05 09:36:36;;;;;;;7.45;2.85;;;18.20;99.90;;;;;;5004786;28;20047;-48
2024/04/05 09:39:08;;;;;;;6.20;3.00;;;18.30;99.90;;;;;;5009531;28;20046;-48
2024/04/05 09:41:35;;;;;;;;;;;18.40;99.90;;;;;;5011475;28;20049;-48
2024/04/05 09:44:06;;;;;;;5.10;2.60;;;18.50;99.90;;;;;;5006954;28;19921;-49
2024/04/05 09:46:33;;;;;;;7.37;2.67;;;18.40;99.90;;;;;;5018320;28;20042;-46
2024/04/05 09:49:00;;;;;;;4.72;2.70;;;18.40;99.90;;;;;;4999311;28;20038;-47
2024/04/05 09:51:44;;;;;;;5.20;2.67;;;18.60;99.90;;;;;;5012275;28;20060;-47
2024/04/05 09:54:11;;;;;;;3.72;2.30;;;18.70;99.90;;;;;;5003636;28;20292;-45
2024/04/05 09:56:39;;;;;;;10.85;3.75;;;18.90;99.90;;;;;;5016061;28;20411;-44
2024/04/05 09:59:10;;;;;;;6.15;2.65;;;19.20;99.90;;;;;;5008649;28;20038;-44
2024/04/05 10:01:39;;;;;;;6.97;2.78;;;19.20;99.90;;;;;;5006987;28;20037;-49
2024/04/05 10:04:07;;;;;;;6.43;2.58;;;19.30;99.90;;;;;;5007311;28;20091;-44
2024/04/05 10:06:38;;;;;;;5.57;2.97;;;19.50;99.90;;;;;;5007111;28;20491;-45
2024/04/05 10:09:21;;;;;;;7.45;2.80;;;19.50;99.90;;;;;;5003487;28;20046;-46
2024/04/05 10:11:52;;;;;;;5.50;2.67;;;19.80;99.90;;;;;;5004643;28;20177;-47
2024/04/05 10:14:21;;;;;;;8.10;2.95;;;20.00;99.90;;;;;;5008680;28;20475;-47
2024/04/05 10:16:48;;;;;;;7.75;3.10;;;20.10;99.90;;;;;;5000821;28;20063;-44
2024/04/05 10:19:15;;;;;;;6.75;2.90;;;20.40;99.90;;;;;;5010806;28;20069;-48
2024/04/05 10:21:43;;;;;;;5.05;3.10;;;20.40;99.90;;;;;;5011162;28;20034;-48
2024/04/05 10:24:10;;;;;;;6.32;3.60;;;20.50;99.90;;;;;;5006851;28;20050;-50
2024/04/05 10:26:37;;;;;;;5.97;3.30;;;20.60;99.90;;;;;;5013339;28;20045;-42
2024/04/05 10:29:05;;;;;;;7.13;3.20;;;20.40;99.90;;;;;;5005340;28;20046;-50
2024/04/05 10:31:32;;;;;;;6.03;3.00;;;20.40;99.90;;;;;;5010602;28;20098;-45
2024/04/05 10:34:00;;;;;;;4.32;3.13;;;20.40;99.90;;;;;;5005005;28;20052;-48
2024/04/05 10:36:28;;;;;;;6.70;3.00;;;20.40;99.90;;;;;;5004741;28;20103;-46
2024/04/05 10:38:54;;;;;;;5.75;3.20;;;20.50;99.90;;;;;;5009873;28;20082;-45
2024/04/05 10:41:21;;;;;;;7.10;3.33;;;20.50;99.90;;;;;;4985129;28;20042;-48
2024/04/05 10:43:48;;;;;;;4.40;3.17;;;20.70;99.90;;;;;;5028381;28;20127;-45
2024/04/05 10:46:16;;;;;;;8.07;4.03;;;20.70;99.90;;;;;;5003452;28;20054;-44
2024/04/05 10:48:42;;;;;;;7.00;3.60;;;20.50;99.90;;;;;;5005656;28;20125;-44
2024/04/05 10:51:08;;;;;;;6.22;3.40;;;20.50;99.90;;;;;;5006456;28;20121;-46
2024/04/05 10:53:34;;;;;;;5.20;3.50;;;20.50;99.90;;;;;;5004960;28;20060;-45
2024/04/05 10:56:03;;;;;;;7.63;3.97;;;20.40;99.90;;;;;;5003515;28;20050;-46
2024/04/05 10:58:30;;;;;;;4.22;3.22;;;20.40;99.90;;;;;;5005157;28;20054;-45
2024/04/05 11:00:56;;;;;;;6.53;3.83;;;20.50;99.90;;;;;;5008460;28;20163;-48
2024/04/05 11:03:22;;;;;;;5.85;3.63;;;20.70;99.90;;;;;;5002529;28;20038;-47
2024/04/05 11:05:48;;;;;;;5.35;3.78;;;20.90;99.90;;;;;;5017247;28;20044;-48
2024/04/05 11:08:15;;;;;;;6.20;3.58;;;21.00;99.90;;;;;;5023626;28;20472;-47
2024/04/05 11:10:43;;;;;;;7.50;3.83;;;21.10;99.90;;;;;;5010824;28;20049;-46
2024/04/05 11:13:15;;;;;;;6.95;3.72;;;21.20;99.90;;;;;;5011854;28;20062;-44
2024/04/05 11:15:45;;;;;;;5.80;3.28;;;21.50;99.90;;;;;;5011090;28;20149;-46
2024/04/05 11:18:11;;;;;;;4.28;3.17;;;21.60;99.90;;;;;;5026137;28;20051;-46
2024/04/05 11:20:42;;;;;;;8.23;3.90;;;21.80;99.90;;;;;;5022724;28;20042;-48
2024/04/05 11:23:16;;;;;;;7.10;3.72;;;22.00;99.90;;;;;;5008669;28;20043;-47
2024/04/05 11:25:56;;;;;;;4.28;3.65;;;22.40;99.90;;;;;;5019688;28;20120;-43
2024/04/05 11:28:23;;;;;;;6.28;4.10;;;22.40;99.90;;;;;;5003035;28;20506;-42
2024/04/05 11:30:53;;;;;;;7.00;5.22;;;22.60;99.90;;;;;;5087453;27;20139;-49
2024/04/05 11:33:19;;;;;;;7.10;3.90;;;22.70;99.90;;;;;;5011146;28;20388;-47
2024/04/05 11:35:46;;;;;;;4.85;3.80;;;23.10;99.90;;;;;;5017231;28;20580;-45
2024/04/05 11:38:14;;;;;;;4.30;3.50;;;23.40;99.90;;;;;;5010386;28;20092;-48
2024/04/05 11:40:39;;;;;;;4.40;3.78;;;23.40;99.90;;;;;;4997650;28;20038;-49
2024/04/05 11:43:08;;;;;;;7.18;3.50;;;23.30;99.90;;;;;;5030707;28;20046;-45
2024/04/05 11:45:35;;;;;;;5.70;4.00;;;23.50;99.90;;;;;;5011344;28;20412;-43
2024/04/05 11:48:02;;;;;;;5.78;4.20;;;23.90;99.90;;;;;;5011568;28;20333;-46
2024/04/05 11:50:29;;;;;;;6.13;3.95;;;24.00;99.90;;;;;;5002983;28;20065;-48
2024/04/05 11:52:55;;;;;;;5.85;4.45;;;24.10;99.90;;;;;;5011872;28;20610;-46
2024/04/05 11:55:21;;;;;;;6.82;3.90;;;24.30;99.90;;;;;;5003005;28;20061;-48
2024/04/05 11:57:47;;;;;;;7.22;4.32;;;24.50;99.90;;;;;;5003732;28;20400;-49
2024/04/05 12:00:14;;;;;;;6.63;4.25;;;25.00;99.90;;;;;;5007496;28;20141;-49
2024/04/05 12:02:40;;;;;;;5.20;4.35;;;25.70;99.90;;;;;;5019507;28;20119;-45
2024/04/05 12:05:07;;;;;;;6.82;4.32;;;25.90;99.90;;;;;;5007289;28;20174;-46
2024/04/05 12:07:34;;;;;;;5.47;4.40;;;26.00;99.90;;;;;;5020219;28;20129;-48
2024/04/05 12:10:00;;;;;;;6.93;4.80;;;26.20;99.90;;;;;;5001327;28;20100;-47
2024/04/05 12:12:28;;;;;;;8.52;5.30;;;26.30;99.90;;;;;;5011861;28;20076;-49
2024/04/05 12:14:58;;;;;;;5.43;4.88;;;26.20;99.90;;;;;;5006654;28;20100;-47
2024/04/05 12:17:24;;;;;;;6.88;4.97;;;25.70;99.90;;;;;;5009875;28;20131;-45
2024/04/05 12:19:50;;;;;;;5.75;5.15;;;25.50;99.90;;;;;;5012970;28;20112;-43
2024/04/05 12:22:16;;;;;;;6.18;4.95;;;25.70;99.90;;;;;;5008881;28;20460;-48
2024/04/05 12:24:46;;;;;;;5.90;5.15;;;26.30;99.90;;;;;;5007149;28;20034;-45
2024/04/05 12:27:12;;;;;;;7.35;5.18;;;26.30;99.70;;;;;;5004726;28;20403;-45
2024/04/05 12:29:38;;;;;;;5.57;4.82;;;26.30;98.20;;;;;;5012921;28;20301;-43
2024/04/05 12:32:05;;;;;;;5.90;5.03;;;26.10;97.40;;;;;;5007434;28;20046;-45
2024/04/05 12:34:31;;;;;;;8.48;4.80;;;26.30;97.70;;;;;;5013014;28;20057;-44
2024/04/05 12:37:06;;;;;;;5.90;5.30;;;26.70;97.80;;;;;;4994057;28;20045;-47
2024/04/05 12:39:32;;;;;;;6.07;5.13;;;26.40;96.60;;;;;;5008937;28;20041;-43
2024/04/05 12:41:58;;;;;;;7.05;5.43;;;26.20;95.00;;;;;;5007395;28;20054;-48
2024/04/05 12:44:27;;;;;;;6.47;5.20;;;26.00;96.40;;;;;;5013833;28;20075;-44